Time;durP1;ratioP1;P1;durP2;ratioP2;P2;SDS_P1;SDS_P2;PMS_P1;PMS_P2;Temp;Humidity;BMP_temperature;BMP_pressure;BME280_temperature;BME280_humidity;BME280_pressure;Samples;Min_cycle;Max_cycle;Signal;HPM_P1;HPM_P2
2023/08/20 00:00:18;;;;;;;;;;;16.60;99.90;;;;;;7329200;19;9197;-83
2023/08/20 00:02:51;;;;;;;;;;;16.60;99.90;;;;;;7329101;19;9328;-83
2023/08/20 00:05:21;;;;;;;;;;;16.50;99.90;;;;;;7329736;19;9303;-83
2023/08/20 00:07:53;;;;;;;;;;;16.50;99.90;;;;;;7329307;19;9213;-84
2023/08/20 00:10:22;;;;;;;;;;;16.50;99.90;;;;;;7328019;19;9231;-83
2023/08/20 00:12:51;;;;;;;;;;;16.40;99.90;;;;;;7328063;19;9162;-83
2023/08/20 00:15:22;;;;;;;;;;;16.40;99.90;;;;;;7328028;19;9177;-83
2023/08/20 00:17:51;;;;;;;;;;;16.40;99.90;;;;;;7327996;19;9213;-83
2023/08/20 00:20:21;;;;;;;;;;;16.40;99.90;;;;;;7327778;19;9485;-83
2023/08/20 00:22:53;;;;;;;;;;;16.30;99.90;;;;;;7327636;19;9186;-84
2023/08/20 00:25:23;;;;;;;;;;;16.30;99.90;;;;;;7327903;19;11131;-83
2023/08/20 00:27:52;;;;;;;;;;;16.20;99.90;;;;;;7327272;19;9277;-83
2023/08/20 00:30:21;;;;;;;;;;;16.10;99.90;;;;;;7327018;19;9221;-83
2023/08/20 00:32:50;;;;;;;;;;;16.00;99.90;;;;;;7327512;19;9326;-83
2023/08/20 00:35:18;;;;;;;;;;;16.00;99.90;;;;;;7327216;19;9497;-83
2023/08/20 00:37:47;;;;;;;;;;;16.00;99.90;;;;;;7327425;19;9197;-82
2023/08/20 00:40:19;;;;;;;;;;;16.00;99.90;;;;;;7326398;19;9361;-83
2023/08/20 00:42:48;;;;;;;;;;;15.90;99.90;;;;;;7330782;19;9181;-83
2023/08/20 00:45:18;;;;;;;;;;;15.90;99.90;;;;;;7324687;19;9199;-82
2023/08/20 00:47:48;;;;;;;;;;;15.90;99.90;;;;;;7327258;19;9177;-83
2023/08/20 00:50:17;;;;;;;;;;;15.90;99.90;;;;;;7325476;19;9181;-83
2023/08/20 00:52:46;;;;;;;;;;;15.80;99.90;;;;;;7327109;19;10466;-83
2023/08/20 00:55:15;;;;;;;;;;;15.80;99.90;;;;;;7326830;19;9566;-83
2023/08/20 00:57:47;;;;;;;;;;;15.80;99.90;;;;;;7326758;19;9184;-83
2023/08/20 01:00:16;;;;;;;;;;;15.90;99.90;;;;;;7326497;19;9221;-83
2023/08/20 01:02:45;;;;;;;;;;;15.90;99.90;;;;;;7326216;19;9621;-83
2023/08/20 01:05:16;;;;;;;;;;;15.90;99.90;;;;;;7326351;19;9281;-83
2023/08/20 01:08:00;;;;;;;;;;;15.90;99.90;;;;;;7326223;19;9454;-83
2023/08/20 01:10:42;;;;;;;;;;;15.90;99.90;;;;;;7325868;19;9574;-83
2023/08/20 01:13:15;;;;;;;;;;;16.00;99.90;;;;;;7326339;19;9172;-83
2023/08/20 01:15:43;;;;;;;;;;;16.00;99.90;;;;;;7326185;19;9177;-83
2023/08/20 01:18:12;;;;;;;;;;;16.00;99.90;;;;;;7326049;19;9170;-83
2023/08/20 01:20:48;;;;;;;;;;;16.00;99.90;;;;;;7325868;19;9154;-83
2023/08/20 01:23:47;;;;;;;;;;;16.00;99.90;;;;;;7325913;19;9284;-83
2023/08/20 01:26:38;;;;;;;;;;;16.00;99.90;;;;;;7326147;19;9649;-82
2023/08/20 01:29:11;;;;;;;;;;;16.10;99.90;;;;;;7326132;19;9254;-83
2023/08/20 01:31:42;;;;;;;;;;;16.00;99.90;;;;;;7324899;19;9311;-83
2023/08/20 01:34:11;;;;;;;;;;;16.10;99.90;;;;;;7325821;19;9173;-83
2023/08/20 01:36:41;;;;;;;;;;;16.10;99.90;;;;;;7325400;19;9173;-83
2023/08/20 01:39:10;;;;;;;;;;;16.20;99.90;;;;;;7325134;19;9120;-83
2023/08/20 01:41:40;;;;;;;;;;;16.10;99.90;;;;;;7328301;19;9140;-83
2023/08/20 01:44:11;;;;;;;;;;;16.10;99.90;;;;;;7324302;19;9217;-82
2023/08/20 01:46:41;;;;;;;;;;;16.00;99.90;;;;;;7325185;19;10759;-83
2023/08/20 01:49:13;;;;;;;;;;;16.00;99.90;;;;;;7325137;19;9223;-83
2023/08/20 01:51:42;;;;;;;;;;;15.90;99.90;;;;;;7324074;19;9214;-84
2023/08/20 01:54:11;;;;;;;;;;;15.90;99.90;;;;;;7324820;19;9196;-82
2023/08/20 01:56:40;;;;;;;;;;;15.90;99.90;;;;;;7324735;19;9220;-83
2023/08/20 01:59:13;;;;;;;;;;;15.90;99.90;;;;;;7324659;19;9199;-83
2023/08/20 02:01:42;;;;;;;;;;;15.90;99.90;;;;;;7322271;19;9437;-83
2023/08/20 02:04:11;;;;;;;;;;;16.00;99.90;;;;;;7324861;19;9551;-83
2023/08/20 02:06:41;;;;;;;;;;;16.00;99.90;;;;;;7324735;19;9553;-83
2023/08/20 02:09:10;;;;;;;;;;;16.00;99.90;;;;;;7326230;19;9211;-83
2023/08/20 02:11:39;;;;;;;;;;;16.00;99.90;;;;;;7326303;19;9174;-83
2023/08/20 02:14:11;;;;;;;;;;;16.00;99.90;;;;;;7325964;19;9232;-83
2023/08/20 02:16:40;;;;;;;;;;;16.00;99.90;;;;;;7324634;19;9186;-83
2023/08/20 02:19:09;;;;;;;;;;;16.00;99.90;;;;;;7324273;19;9305;-83
2023/08/20 02:21:38;;;;;;;;;;;16.00;99.90;;;;;;7323799;19;9271;-83
2023/08/20 02:24:08;;;;;;;;;;;15.90;99.90;;;;;;7323591;19;9205;-83
2023/08/20 02:26:37;;;;;;;;;;;15.90;99.90;;;;;;7323801;19;9181;-83
2023/08/20 02:29:06;;;;;;;;;;;15.90;99.90;;;;;;7323386;19;9203;-83
2023/08/20 02:31:38;;;;;;;;;;;15.90;99.90;;;;;;7323050;19;9341;-83
2023/08/20 02:34:08;;;;;;;;;;;15.90;99.90;;;;;;7323423;19;10373;-83
2023/08/20 02:36:37;;;;;;;;;;;15.90;99.90;;;;;;7323467;19;9217;-83
2023/08/20 02:39:08;;;;;;;;;;;15.90;99.90;;;;;;7323484;19;9256;-83
2023/08/20 02:41:37;;;;;;;;;;;15.90;99.90;;;;;;7326608;19;9254;-83
2023/08/20 02:44:07;;;;;;;;;;;15.90;99.90;;;;;;7322306;19;9472;-83
2023/08/20 02:46:38;;;;;;;;;;;15.80;99.90;;;;;;7323343;19;9254;-83
2023/08/20 02:49:07;;;;;;;;;;;15.80;99.90;;;;;;7323551;19;9244;-83
2023/08/20 02:51:36;;;;;;;;;;;15.80;99.90;;;;;;7322543;19;9182;-82
2023/08/20 02:54:06;;;;;;;;;;;15.80;99.90;;;;;;7322933;19;9429;-83
2023/08/20 02:56:35;;;;;;;;;;;15.80;99.90;;;;;;7322725;19;9266;-83
2023/08/20 02:59:03;;;;;;;;;;;15.80;99.90;;;;;;7323158;19;9165;-83
2023/08/20 03:01:33;;;;;;;;;;;15.80;99.90;;;;;;7322551;19;10313;-83
2023/08/20 03:04:05;;;;;;;;;;;15.70;99.90;;;;;;7322819;19;10742;-83
2023/08/20 03:06:34;;;;;;;;;;;15.70;99.90;;;;;;7322686;19;9557;-83
2023/08/20 03:09:04;;;;;;;;;;;15.70;99.90;;;;;;7322848;19;9223;-83
2023/08/20 03:11:33;;;;;;;;;;;15.60;99.90;;;;;;7321937;19;9511;-83
2023/08/20 03:14:02;;;;;;;;;;;15.60;99.90;;;;;;7327338;19;9165;-83
2023/08/20 03:16:31;;;;;;;;;;;15.50;99.90;;;;;;7330246;19;9178;-83
2023/08/20 03:18:59;;;;;;;;;;;15.50;99.90;;;;;;7329893;19;9277;-83
2023/08/20 03:21:31;;;;;;;;;;;15.50;99.90;;;;;;7329871;19;9272;-83
2023/08/20 03:24:00;;;;;;;;;;;15.40;99.90;;;;;;7329491;19;9464;-83
2023/08/20 03:26:29;;;;;;;;;;;15.40;99.90;;;;;;7329499;19;9332;-83
2023/08/20 03:28:58;;;;;;;;;;;15.50;99.90;;;;;;7329869;19;9220;-83
2023/08/20 03:31:28;;;;;;;;;;;15.50;99.90;;;;;;7329128;19;9507;-83
2023/08/20 03:33:57;;;;;;;;;;;15.50;99.90;;;;;;7329505;19;9207;-83
2023/08/20 03:36:26;;;;;;;;;;;15.50;99.90;;;;;;7328964;19;10702;-83
2023/08/20 03:38:57;;;;;;;;;;;15.50;99.90;;;;;;7329458;19;9129;-83
2023/08/20 03:41:26;;;;;;;;;;;15.40;99.90;;;;;;7329341;19;9483;-83
2023/08/20 03:43:55;;;;;;;;;;;15.40;99.90;;;;;;7328127;19;9396;-83
2023/08/20 03:46:24;;;;;;;;;;;15.40;99.90;;;;;;7329092;19;9351;-82
2023/08/20 03:48:53;;;;;;;;;;;15.40;99.90;;;;;;7329099;19;9181;-83
2023/08/20 03:51:22;;;;;;;;;;;15.40;99.90;;;;;;7328696;19;9190;-83
2023/08/20 03:53:51;;;;;;;;;;;15.30;99.90;;;;;;7329082;19;10346;-83
2023/08/20 03:56:23;;;;;;;;;;;15.20;99.90;;;;;;7328483;19;9201;-83
2023/08/20 03:58:52;;;;;;;;;;;15.30;99.90;;;;;;7328738;19;9191;-82
2023/08/20 04:01:21;;;;;;;;;;;15.30;99.90;;;;;;7328422;19;9111;-83
2023/08/20 04:03:50;;;;;;;;;;;15.30;99.90;;;;;;7328836;19;9161;-82
2023/08/20 04:06:19;;;;;;;;;;;15.30;99.90;;;;;;7328622;19;9491;-83
2023/08/20 04:08:48;;;;;;;;;;;15.20;99.90;;;;;;7328355;19;9479;-83
2023/08/20 04:11:18;;;;;;;;;;;15.10;99.90;;;;;;7328238;19;9214;-83
2023/08/20 04:13:50;;;;;;;;;;;15.10;99.90;;;;;;7325460;19;10182;-83
2023/08/20 04:16:19;;;;;;;;;;;15.10;99.90;;;;;;7329132;19;9249;-83
2023/08/20 04:18:48;;;;;;;;;;;15.10;99.90;;;;;;7329905;19;9424;-83
2023/08/20 04:21:17;;;;;;;;;;;15.10;99.90;;;;;;7329368;19;9165;-83
2023/08/20 04:23:46;;;;;;;;;;;15.10;99.90;;;;;;7328150;19;9113;-83
2023/08/20 04:26:15;;;;;;;;;;;15.10;99.90;;;;;;7325856;19;9184;-83
2023/08/20 04:28:44;;;;;;;;;;;15.20;99.90;;;;;;7327822;19;9232;-83
2023/08/20 04:31:18;;;;;;;;;;;15.20;99.90;;;;;;7327767;19;9288;-83
2023/08/20 04:33:48;;;;;;;;;;;15.20;99.90;;;;;;7325515;19;9290;-83
2023/08/20 04:36:17;;;;;;;;;;;15.30;99.90;;;;;;7327723;19;10424;-83
2023/08/20 04:38:46;;;;;;;;;;;15.30;99.90;;;;;;7327570;19;9215;-83
2023/08/20 04:41:15;;;;;;;;;;;15.30;99.90;;;;;;7328206;19;9196;-83
2023/08/20 04:43:44;;;;;;;;;;;15.30;99.90;;;;;;7326429;19;9482;-83
2023/08/20 04:46:14;;;;;;;;;;;15.30;99.90;;;;;;7327199;19;9526;-83
2023/08/20 04:48:46;;;;;;;;;;;15.30;99.90;;;;;;7326978;19;9182;-83
2023/08/20 04:51:15;;;;;;;;;;;15.30;99.90;;;;;;7326918;19;9462;-83
2023/08/20 04:53:44;;;;;;;;;;;15.30;99.90;;;;;;7324914;19;9518;-83
2023/08/20 04:56:13;;;;;;;;;;;15.30;99.90;;;;;;7326731;19;9054;-82
2023/08/20 04:58:42;;;;;;;;;;;15.40;99.90;;;;;;7326705;19;9209;-83
2023/08/20 05:01:11;;;;;;;;;;;15.40;99.90;;;;;;7326462;19;9324;-83
2023/08/20 05:03:40;;;;;;;;;;;15.40;99.90;;;;;;7326333;19;9351;-83
2023/08/20 05:06:11;;;;;;;;;;;15.50;99.90;;;;;;7325059;19;10689;-82
2023/08/20 05:08:40;;;;;;;;;;;15.50;99.90;;;;;;7326560;19;9104;-83
2023/08/20 05:11:09;;;;;;;;;;;15.50;99.90;;;;;;7326379;19;9169;-83
2023/08/20 05:13:39;;;;;;;;;;;15.50;99.90;;;;;;7324621;19;9209;-83
2023/08/20 05:16:08;;;;;;;;;;;15.50;99.90;;;;;;7325919;19;10141;-83
2023/08/20 05:18:37;;;;;;;;;;;15.60;99.90;;;;;;7326081;19;9150;-83
2023/08/20 05:21:06;;;;;;;;;;;15.60;99.90;;;;;;7324617;19;9675;-83
2023/08/20 05:23:38;;;;;;;;;;;15.60;99.90;;;;;;7325776;19;9497;-83
2023/08/20 05:26:06;;;;;;;;;;;15.60;99.90;;;;;;7325880;19;10712;-83
2023/08/20 05:28:35;;;;;;;;;;;15.60;99.90;;;;;;7325531;19;9491;-83
2023/08/20 05:31:04;;;;;;;;;;;15.70;99.90;;;;;;7325690;19;9188;-83
2023/08/20 05:33:33;;;;;;;;;;;15.80;99.90;;;;;;7323837;19;9209;-83
2023/08/20 05:36:03;;;;;;;;;;;15.90;99.90;;;;;;7324522;19;9156;-83
2023/08/20 05:38:32;;;;;;;;;;;16.00;99.90;;;;;;7325392;19;9193;-82
2023/08/20 05:41:03;;;;;;;;;;;16.10;99.90;;;;;;7326058;19;9294;-83
2023/08/20 05:43:32;;;;;;;;;;;16.20;99.90;;;;;;7324601;19;8992;-83
2023/08/20 05:46:01;;;;;;;;;;;16.30;99.90;;;;;;7325176;19;9149;-83
2023/08/20 05:48:30;;;;;;;;;;;16.30;99.90;;;;;;7324927;19;9319;-83
2023/08/20 05:50:59;;;;;;;;;;;16.30;99.90;;;;;;7325141;19;9623;-83
2023/08/20 05:53:28;;;;;;;;;;;16.40;99.90;;;;;;7323397;19;9237;-83
2023/08/20 05:55:57;;;;;;;;;;;16.50;99.90;;;;;;7324683;19;8944;-83
2023/08/20 05:58:28;;;;;;;;;;;16.70;99.90;;;;;;7324747;19;9470;-83
2023/08/20 06:00:57;;;;;;;;;;;16.80;99.90;;;;;;7324772;19;9433;-83
2023/08/20 06:03:26;;;;;;;;;;;16.90;99.90;;;;;;7324588;19;11353;-83
2023/08/20 06:05:55;;;;;;;;;;;16.90;99.90;;;;;;7324769;19;9447;-83
2023/08/20 06:08:24;;;;;;;;;;;17.00;99.90;;;;;;7324547;19;9262;-83
2023/08/20 06:10:54;;;;;;;;;;;17.00;99.90;;;;;;7325027;19;9510;-83
2023/08/20 06:13:23;;;;;;;;;;;17.00;99.90;;;;;;7323595;19;9183;-83
2023/08/20 06:15:55;;;;;;;;;;;17.00;99.90;;;;;;7324319;19;9229;-83
2023/08/20 06:18:24;;;;;;;;;;;17.00;99.90;;;;;;7324441;19;9463;-83
2023/08/20 06:20:53;;;;;;;;;;;17.10;99.90;;;;;;7324023;19;9209;-83
2023/08/20 06:23:22;;;;;;;;;;;17.20;99.90;;;;;;7323831;19;9510;-83
2023/08/20 06:25:53;;;;;;;;;;;17.40;99.90;;;;;;7324218;19;11252;-83
2023/08/20 06:28:23;;;;;;;;;;;17.50;99.90;;;;;;7325348;19;10223;-83
2023/08/20 06:30:54;;;;;;;;;;;17.60;99.90;;;;;;7325416;19;9492;-83
2023/08/20 06:33:23;;;;;;;;;;;17.50;99.90;;;;;;7322988;19;9001;-83
2023/08/20 06:35:52;;;;;;;;;;;17.50;99.90;;;;;;7323613;19;9309;-83
2023/08/20 06:38:21;;;;;;;;;;;17.60;99.90;;;;;;7323311;19;9423;-83
2023/08/20 06:40:50;;;;;;;;;;;17.60;99.90;;;;;;7325260;19;9307;-83
2023/08/20 06:43:19;;;;;;;;;;;17.70;99.90;;;;;;7323173;19;9178;-83
2023/08/20 06:45:48;;;;;;;;;;;17.80;99.90;;;;;;7323240;19;11213;-83
2023/08/20 06:48:20;;;;;;;;;;;17.80;99.90;;;;;;7321527;19;9443;-83
2023/08/20 06:50:49;;;;;;;;;;;17.90;99.90;;;;;;7323666;19;9192;-83
2023/08/20 06:53:18;;;;;;;;;;;17.90;99.90;;;;;;7322701;19;9252;-83
2023/08/20 06:55:46;;;;;;;;;;;18.00;99.90;;;;;;7323102;19;9263;-83
2023/08/20 06:58:15;;;;;;;;;;;18.00;99.90;;;;;;7322751;19;9508;-83
2023/08/20 07:00:44;;;;;;;;;;;18.10;99.90;;;;;;7322945;19;9172;-83
2023/08/20 07:03:13;;;;;;;;;;;18.20;99.90;;;;;;7322781;19;10371;-83
2023/08/20 07:05:46;;;;;;;;;;;18.30;99.90;;;;;;7322570;19;9180;-83
2023/08/20 07:08:15;;;;;;;;;;;18.40;99.90;;;;;;7322694;19;9249;-83
2023/08/20 07:10:44;;;;;;;;;;;18.50;99.90;;;;;;7322619;19;9185;-83
2023/08/20 07:13:13;;;;;;;;;;;18.60;99.90;;;;;;7322181;19;9271;-83
2023/08/20 07:15:42;;;;;;;;;;;18.70;99.90;;;;;;7322710;19;8944;-83
2023/08/20 07:18:13;;;;;;;;;;;18.70;99.90;;;;;;7322533;19;9262;-83
2023/08/20 07:20:45;;;;;;;;;;;18.80;99.90;;;;;;7322332;19;9398;-83
2023/08/20 07:23:15;;;;;;;;;;;18.90;99.90;;;;;;7322428;19;9173;-83
2023/08/20 07:25:44;;;;;;;;;;;19.10;99.90;;;;;;7322252;19;9083;-83
2023/08/20 07:28:14;;;;;;;;;;;19.20;99.90;;;;;;7322222;19;9391;-83
2023/08/20 07:30:43;;;;;;;;;;;19.40;99.90;;;;;;7322479;19;9239;-83
2023/08/20 07:33:12;;;;;;;;;;;19.60;99.90;;;;;;7321441;19;10426;-83
2023/08/20 07:35:41;;;;;;;;;;;20.00;99.90;;;;;;7322070;19;9220;-83
2023/08/20 07:38:12;;;;;;;;;;;20.20;99.90;;;;;;7321927;19;9162;-83
2023/08/20 07:40:42;;;;;;;;;;;20.60;99.90;;;;;;7323608;19;9209;-83
2023/08/20 07:43:10;;;;;;;;;;;21.00;99.90;;;;;;7321468;19;9185;-83
2023/08/20 07:45:39;;;;;;;;;;;21.40;99.90;;;;;;7321779;19;9503;-83
2023/08/20 07:48:09;;;;;;;;;;;21.80;99.90;;;;;;7321200;19;9252;-83
2023/08/20 07:50:38;;;;;;;;;;;22.20;99.90;;;;;;7321302;19;9770;-83
2023/08/20 07:53:07;;;;;;;;;;;22.50;99.90;;;;;;7319322;19;9217;-83
2023/08/20 07:55:39;;;;;;;;;;;22.70;99.90;;;;;;7321687;19;8944;-83
2023/08/20 07:58:08;;;;;;;;;;;22.90;99.90;;;;;;7322046;19;9520;-83
2023/08/20 08:00:37;;;;;;;;;;;23.10;99.90;;;;;;7327657;19;9225;-83
2023/08/20 08:03:07;;;;;;;;;;;23.30;99.90;;;;;;7328185;19;9253;-83
2023/08/20 08:05:36;;;;;;;;;;;23.50;99.90;;;;;;7328249;19;9323;-83
2023/08/20 08:08:06;;;;;;;;;;;23.60;99.90;;;;;;7328222;19;10722;-83
2023/08/20 08:10:37;;;;;;;;;;;23.60;99.90;;;;;;7328453;19;9212;-83
2023/08/20 08:13:06;;;;;;;;;;;23.80;99.90;;;;;;7328019;19;9166;-83
2023/08/20 08:15:35;;;;;;;;;;;23.90;99.90;;;;;;7327679;19;9160;-83
2023/08/20 08:18:04;;;;;;;;;;;24.00;99.90;;;;;;7328055;19;9191;-83
2023/08/20 08:20:34;;;;;;;;;;;24.10;99.90;;;;;;7327810;19;9205;-83
2023/08/20 08:23:04;;;;;;;;;;;24.20;99.90;;;;;;7327923;19;9209;-83
2023/08/20 08:25:33;;;;;;;;;;;24.20;98.80;;;;;;7326075;19;10527;-83
2023/08/20 08:28:04;;;;;;;;;;;24.20;97.70;;;;;;7327780;19;9186;-83
2023/08/20 08:30:33;;;;;;;;;;;24.20;97.60;;;;;;7328066;19;9218;-83
2023/08/20 08:33:02;;;;;;;;;;;24.10;98.50;;;;;;7327992;19;10169;-83
2023/08/20 08:35:32;;;;;;;;;;;23.90;98.60;;;;;;7329095;19;9184;-83
2023/08/20 08:38:03;;;;;;;;;;;23.70;98.30;;;;;;7329912;19;9119;-83
2023/08/20 08:40:33;;;;;;;;;;;23.50;99.20;;;;;;7327461;19;9275;-83
2023/08/20 08:43:05;;;;;;;;;;;23.40;99.90;;;;;;7327244;19;9172;-83
2023/08/20 08:45:36;;;;;;;;;;;23.30;99.90;;;;;;7327285;19;10358;-83
2023/08/20 08:48:06;;;;;;;;;;;23.30;99.90;;;;;;7326931;19;9128;-83
2023/08/20 08:50:35;;;;;;;;;;;23.30;99.90;;;;;;7327120;19;9148;-83
2023/08/20 08:53:05;;;;;;;;;;;23.20;99.90;;;;;;7326881;19;9482;-83
2023/08/20 08:55:34;;;;;;;;;;;23.20;99.90;;;;;;7326611;19;9211;-83
2023/08/20 08:58:05;;;;;;;;;;;23.20;99.90;;;;;;7326699;19;9181;-83
2023/08/20 09:00:34;;;;;;;;;;;23.30;99.90;;;;;;7326569;19;9194;-83
2023/08/20 09:03:03;;;;;;;;;;;23.20;99.90;;;;;;7326188;19;9626;-83
2023/08/20 09:05:32;;;;;;;;;;;23.30;99.90;;;;;;7326432;19;9481;-83
2023/08/20 09:08:01;;;;;;;;;;;23.30;99.70;;;;;;7326571;19;9214;-82
2023/08/20 09:10:30;;;;;;;;;;;23.30;99.50;;;;;;7324870;19;9358;-83
2023/08/20 09:12:59;;;;;;;;;;;23.30;99.30;;;;;;7326171;19;9161;-83
2023/08/20 09:15:36;;;;;;;;;;;23.30;99.60;;;;;;7323919;19;9530;-84
2023/08/20 09:18:06;;;;;;;;;;;23.40;99.30;;;;;;7325953;19;9174;-83
2023/08/20 09:20:39;;;;;;;;;;;23.50;99.00;;;;;;7326038;19;9296;-83
2023/08/20 09:23:15;;;;;;;;;;;23.50;99.00;;;;;;7326025;19;9461;-83
2023/08/20 09:25:46;;;;;;;;;;;23.60;98.70;;;;;;7326193;19;9128;-83
2023/08/20 09:28:15;;;;;;;;;;;23.60;98.20;;;;;;7326285;19;9205;-83
2023/08/20 09:30:57;;;;;;;;;;;23.70;97.20;;;;;;7325928;19;9198;-83
2023/08/20 09:33:27;;;;;;;;;;;23.70;97.00;;;;;;7325768;19;9172;-83
2023/08/20 09:35:56;;;;;;;;;;;23.80;97.40;;;;;;7325499;19;9288;-83
2023/08/20 09:38:26;;;;;;;;;;;23.90;97.20;;;;;;7325423;19;9626;-83
2023/08/20 09:40:56;;;;;;;;;;;23.90;96.60;;;;;;7327244;19;9149;-83
2023/08/20 09:43:30;;;;;;;;;;;24.00;95.80;;;;;;7324886;19;9208;-83
2023/08/20 09:46:06;;;;;;;;;;;23.90;95.20;;;;;;7325367;19;9225;-83
2023/08/20 09:48:37;;;;;;;;;;;24.00;95.50;;;;;;7325015;19;9467;-83
2023/08/20 09:51:13;;;;;;;;;;;24.00;95.40;;;;;;7323933;19;10233;-83
2023/08/20 09:53:56;;;;;;;;;;;24.00;95.40;;;;;;7324563;19;8948;-83
2023/08/20 09:56:31;;;;;;;;;;;24.10;95.10;;;;;;7324900;19;9162;-83
2023/08/20 09:59:00;;;;;;;;;;;24.20;94.90;;;;;;7324739;19;9494;-83
2023/08/20 10:01:32;;;;;;;;;;;24.20;94.70;;;;;;7324556;19;10451;-83
2023/08/20 10:04:02;;;;;;;;;;;24.30;94.00;;;;;;7324472;19;9181;-83
2023/08/20 10:06:32;;;;;;;;;;;24.40;93.40;;;;;;7324409;19;9259;-83
2023/08/20 10:09:03;;;;;;;;;;;24.40;92.90;;;;;;7324711;19;9197;-83
2023/08/20 10:11:32;;;;;;;;;;;24.40;92.70;;;;;;7324362;19;9198;-83
2023/08/20 10:14:02;;;;;;;;;;;24.40;92.60;;;;;;7324148;19;9398;-83
2023/08/20 10:16:36;;;;;;;;;;;24.50;92.70;;;;;;7324054;19;9231;-83
2023/08/20 10:19:06;;;;;;;;;;;24.50;92.60;;;;;;7324170;19;9466;-83
2023/08/20 10:21:36;;;;;;;;;;;24.50;92.10;;;;;;7324186;19;9302;-83
2023/08/20 10:24:06;;;;;;;;;;;24.50;92.40;;;;;;7322223;19;9193;-82
2023/08/20 10:26:37;;;;;;;;;;;24.40;92.50;;;;;;7324207;19;9195;-83
2023/08/20 10:29:42;;;;;;;;;;;24.40;92.70;;;;;;7322578;19;9272;-83
2023/08/20 10:32:15;;;;;;;;;;;24.50;92.30;;;;;;7323868;19;9299;-83
2023/08/20 10:34:52;;;;;;;;;;;24.70;91.80;;;;;;7322978;19;9297;-83
2023/08/20 10:37:30;;;;;;;;;;;24.80;91.00;;;;;;7323602;19;9305;-83
2023/08/20 10:39:59;;;;;;;;;;;24.80;90.50;;;;;;7325311;19;9529;-83
2023/08/20 10:42:32;;;;;;;;;;;24.90;90.50;;;;;;7326020;19;8945;-83
2023/08/20 10:45:08;;;;;;;;;;;24.90;90.10;;;;;;7324885;19;9127;-83
2023/08/20 10:47:48;;;;;;;;;;;24.90;90.20;;;;;;7324268;19;9161;-83
2023/08/20 10:50:20;;;;;;;;;;;24.90;88.80;;;;;;7323908;19;9387;-83
2023/08/20 10:52:57;;;;;;;;;;;24.90;89.00;;;;;;7323429;19;9190;-83
2023/08/20 10:55:28;;;;;;;;;;;25.00;88.20;;;;;;7321705;19;9462;-83
2023/08/20 10:58:02;;;;;;;;;;;25.00;88.20;;;;;;7323140;19;9177;-82
2023/08/20 11:00:31;;;;;;;;;;;25.00;88.00;;;;;;7322932;19;9241;-83
2023/08/20 11:03:03;;;;;;;;;;;25.00;88.10;;;;;;7323108;19;9653;-83
2023/08/20 11:05:33;;;;;;;;;;;25.00;85.90;;;;;;7322821;19;9213;-83
2023/08/20 11:08:05;;;;;;;;;;;25.10;86.90;;;;;;7322780;19;9197;-84
2023/08/20 11:10:36;;;;;;;;;;;25.10;86.90;;;;;;7322425;19;10399;-83
2023/08/20 11:13:05;;;;;;;;;;;25.20;86.90;;;;;;7322723;19;9193;-83
2023/08/20 11:15:35;;;;;;;;;;;25.30;86.90;;;;;;7321111;19;10345;-83
2023/08/20 11:18:08;;;;;;;;;;;25.30;86.20;;;;;;7322578;19;9221;-83
2023/08/20 11:20:38;;;;;;;;;;;25.40;85.10;;;;;;7322549;19;9187;-83
2023/08/20 11:23:09;;;;;;;;;;;25.50;84.80;;;;;;7322270;19;9280;-83
2023/08/20 11:25:43;;;;;;;;;;;25.50;83.40;;;;;;7322195;19;9396;-83
2023/08/20 11:28:12;;;;;;;;;;;25.50;83.70;;;;;;7322350;19;9190;-83
2023/08/20 11:30:41;;;;;;;;;;;25.50;83.90;;;;;;7322319;19;9269;-83
2023/08/20 11:33:13;;;;;;;;;;;25.50;83.00;;;;;;7322356;19;9172;-83
2023/08/20 11:35:43;;;;;;;;;;;25.50;83.20;;;;;;7326911;19;9310;-83
2023/08/20 11:38:13;;;;;;;;;;;25.60;82.10;;;;;;7329512;19;9202;-84
2023/08/20 11:40:42;;;;;;;;;;;25.60;82.10;;;;;;7330886;19;9196;-83
2023/08/20 11:43:11;;;;;;;;;;;25.50;80.70;;;;;;7328835;19;9235;-82
2023/08/20 11:45:48;;;;;;;;;;;25.60;81.50;;;;;;7329800;19;9506;-83
2023/08/20 11:48:22;;;;;;;;;;;25.60;81.30;;;;;;7329380;19;9479;-83
2023/08/20 11:50:53;;;;;;;;;;;25.60;81.40;;;;;;7329744;19;9181;-83
2023/08/20 11:53:25;;;;;;;;;;;25.50;80.90;;;;;;7329207;19;9659;-83
2023/08/20 11:55:54;;;;;;;;;;;25.50;81.50;;;;;;7327325;19;9259;-83
2023/08/20 11:58:23;;;;;;;;;;;25.60;81.80;;;;;;7328680;19;8944;-83
2023/08/20 12:00:53;;;;;;;;;;;25.60;81.10;;;;;;7328776;19;9343;-83
2023/08/20 12:03:25;;;;;;;;;;;25.60;81.40;;;;;;7328635;19;9204;-84
2023/08/20 12:05:54;;;;;;;;;;;25.50;80.60;;;;;;7328439;19;9185;-83
2023/08/20 12:08:23;;;;;;;;;;;25.50;80.80;;;;;;7328384;19;9208;-83
2023/08/20 12:10:52;;;;;;;;;;;25.60;80.90;;;;;;7328172;19;9480;-83
2023/08/20 12:13:22;;;;;;;;;;;25.70;81.10;;;;;;7328207;19;9141;-83
2023/08/20 12:15:51;;;;;;;;;;;25.70;80.30;;;;;;7326502;19;9190;-83
2023/08/20 12:18:20;;;;;;;;;;;25.70;78.70;;;;;;7328227;19;9612;-83
2023/08/20 12:20:52;;;;;;;;;;;25.60;78.60;;;;;;7327959;19;9338;-83
2023/08/20 12:23:22;;;;;;;;;;;25.40;79.60;;;;;;7328102;19;9209;-83
2023/08/20 12:25:54;;;;;;;;;;;25.30;80.40;;;;;;7327734;19;11186;-83
2023/08/20 12:28:24;;;;;;;;;;;25.40;80.60;;;;;;7328072;19;9173;-83
2023/08/20 12:30:53;;;;;;;;;;;25.50;80.50;;;;;;7327912;19;10022;-83
2023/08/20 12:33:23;;;;;;;;;;;25.60;80.00;;;;;;7327806;19;9488;-84
2023/08/20 12:35:57;;;;;;;;;;;25.70;77.10;;;;;;7325924;19;9305;-83
2023/08/20 12:38:26;;;;;;;;;;;25.80;78.20;;;;;;7327615;19;11349;-83
2023/08/20 12:40:55;;;;;;;;;;;25.70;78.80;;;;;;7329604;19;9461;-83
2023/08/20 12:43:24;;;;;;;;;;;25.60;78.40;;;;;;7327036;19;9217;-83
2023/08/20 12:45:53;;;;;;;;;;;25.50;79.60;;;;;;7326286;19;9441;-84
2023/08/20 12:48:25;;;;;;;;;;;25.40;76.40;;;;;;7328586;19;9556;-83
2023/08/20 12:50:56;;;;;;;;;;;25.50;76.80;;;;;;7329173;19;9212;-83
2023/08/20 12:53:25;;;;;;;;;;;25.60;78.20;;;;;;7327515;19;9196;-83
2023/08/20 12:55:54;;;;;;;;;;;25.70;77.60;;;;;;7326158;19;9173;-83
2023/08/20 12:58:23;;;;;;;;;;;25.90;77.90;;;;;;7327087;19;9169;-83
2023/08/20 13:00:53;;;;;;;;;;;26.00;77.60;;;;;;7326529;19;9165;-84
2023/08/20 13:03:22;;;;;;;;;;;26.00;77.30;;;;;;7326440;19;9511;-83
2023/08/20 13:05:52;;;;;;;;;;;25.70;77.40;;;;;;7326651;19;9281;-83
2023/08/20 13:08:24;;;;;;;;;;;25.50;78.20;;;;;;7326357;19;9211;-83
2023/08/20 13:10:57;;;;;;;;;;;25.50;78.60;;;;;;7326556;19;9205;-83
2023/08/20 13:13:28;;;;;;;;;;;25.70;78.30;;;;;;7326184;19;9179;-83
2023/08/20 13:15:57;;;;;;;;;;;25.80;78.30;;;;;;7325153;19;10351;-83
2023/08/20 13:18:27;;;;;;;;;;;25.90;77.00;;;;;;7326171;19;9310;-84
2023/08/20 13:20:56;;;;;;;;;;;25.80;77.50;;;;;;7326280;19;10431;-83
2023/08/20 13:23:29;;;;;;;;;;;25.80;77.00;;;;;;7326459;19;9173;-83
2023/08/20 13:25:58;;;;;;;;;;;25.80;77.80;;;;;;7326118;19;9257;-83
2023/08/20 13:28:27;;;;;;;;;;;25.90;77.60;;;;;;7326086;19;9223;-83
2023/08/20 13:30:55;;;;;;;;;;;25.90;74.30;;;;;;7326146;19;9285;-84
2023/08/20 13:33:24;;;;;;;;;;;26.00;76.00;;;;;;7325968;19;9456;-83
2023/08/20 13:35:53;;;;;;;;;;;25.80;76.00;;;;;;7324565;19;9159;-84
2023/08/20 13:38:23;;;;;;;;;;;25.60;74.90;;;;;;7325391;19;9130;-83
2023/08/20 13:40:55;;;;;;;;;;;25.50;76.60;;;;;;7328183;19;9233;-84
2023/08/20 13:43:25;;;;;;;;;;;25.70;77.10;;;;;;7324785;19;10599;-83
2023/08/20 13:45:53;;;;;;;;;;;25.70;75.10;;;;;;7325427;19;9266;-84
2023/08/20 13:48:22;;;;;;;;;;;25.60;76.80;;;;;;7325183;19;9120;-83
2023/08/20 13:50:51;;;;;;;;;;;25.40;77.20;;;;;;7324755;19;9237;-83
2023/08/20 13:53:20;;;;;;;;;;;25.30;76.50;;;;;;7324870;19;9215;-83
2023/08/20 13:55:49;;;;;;;;;;;25.20;77.40;;;;;;7324090;19;9205;-83
2023/08/20 13:58:21;;;;;;;;;;;25.30;77.50;;;;;;7324184;19;10388;-84
2023/08/20 14:00:50;;;;;;;;;;;25.50;77.40;;;;;;7324775;19;9452;-83
2023/08/20 14:03:19;;;;;;;;;;;25.70;76.50;;;;;;7324708;19;9212;-84
2023/08/20 14:05:48;;;;;;;;;;;25.60;76.80;;;;;;7324501;19;9216;-83
2023/08/20 14:08:17;;;;;;;;;;;25.50;76.30;;;;;;7324456;19;9189;-83
2023/08/20 14:10:46;;;;;;;;;;;25.50;77.10;;;;;;7324513;19;9204;-83
2023/08/20 14:13:15;;;;;;;;;;;25.60;76.80;;;;;;7324281;19;9225;-84
2023/08/20 14:15:46;;;;;;;;;;;25.70;76.10;;;;;;7323903;19;9184;-83
2023/08/20 14:18:15;;;;;;;;;;;25.70;76.10;;;;;;7324671;19;9188;-83
2023/08/20 14:20:44;;;;;;;;;;;25.80;76.20;;;;;;7324314;19;9235;-83
2023/08/20 14:23:13;;;;;;;;;;;25.80;75.90;;;;;;7324335;19;8944;-84
2023/08/20 14:25:43;;;;;;;;;;;25.60;75.70;;;;;;7323885;19;9169;-83
2023/08/20 14:28:12;;;;;;;;;;;25.60;75.70;;;;;;7324109;19;9231;-84
2023/08/20 14:30:41;;;;;;;;;;;25.70;75.10;;;;;;7323690;19;9166;-84
2023/08/20 14:33:13;;;;;;;;;;;25.70;74.20;;;;;;7323757;19;9525;-84
2023/08/20 14:35:42;;;;;;;;;;;25.50;74.50;;;;;;7323120;19;9132;-84
2023/08/20 14:38:11;;;;;;;;;;;25.40;75.40;;;;;;7323434;19;9493;-83
2023/08/20 14:40:41;;;;;;;;;;;25.30;76.30;;;;;;7326976;19;9343;-84
2023/08/20 14:43:10;;;;;;;;;;;25.30;76.50;;;;;;7323120;19;9197;-82
2023/08/20 14:45:39;;;;;;;;;;;25.40;76.60;;;;;;7323779;19;9178;-84